createdAt,value
2018-09-05T00:00:17.650Z,1008.77
2018-09-05T00:01:17.639Z,1008.78
2018-09-05T00:02:17.627Z,1008.77
2018-09-05T00:03:17.615Z,1008.78
2018-09-05T00:04:17.607Z,1008.75
2018-09-05T00:05:17.592Z,1008.79
2018-09-05T00:06:17.579Z,1008.76
2018-09-05T00:07:17.574Z,1008.76
2018-09-05T00:08:17.557Z,1008.73
2018-09-05T00:09:17.546Z,1008.72
2018-09-05T00:10:17.551Z,1008.77
2018-09-05T00:11:17.522Z,1008.74
2018-09-05T00:12:17.513Z,1008.71
2018-09-05T00:13:17.501Z,1008.73
2018-09-05T00:14:17.534Z,1008.74
2018-09-05T00:15:17.481Z,1008.75
2018-09-05T00:16:17.463Z,1008.76
2018-09-05T00:17:17.453Z,1008.73
2018-09-05T00:18:17.441Z,1008.73
2018-09-05T00:19:17.430Z,1008.77
2018-09-05T00:20:17.419Z,1008.82
2018-09-05T00:21:17.406Z,1008.78
2018-09-05T00:22:17.396Z,1008.77
2018-09-05T00:23:17.434Z,1008.8
2018-09-05T00:24:17.376Z,1008.83
2018-09-05T00:25:17.362Z,1008.79
2018-09-05T00:26:17.349Z,1008.84
2018-09-05T00:27:17.338Z,1008.85
2018-09-05T00:28:17.327Z,1008.84
2018-09-05T00:29:17.313Z,1008.86
2018-09-05T00:30:17.302Z,1008.83
2018-09-05T00:31:17.290Z,1008.86
2018-09-05T00:32:17.279Z,1008.84
2018-09-05T00:33:17.319Z,1008.84
2018-09-05T00:34:17.255Z,1008.83
2018-09-05T00:35:17.243Z,1008.82
2018-09-05T00:36:17.235Z,1008.81
2018-09-05T00:37:17.218Z,1008.78
2018-09-05T00:38:17.208Z,1008.78
2018-09-05T00:39:17.200Z,1008.79
2018-09-05T00:40:17.185Z,1008.79
2018-09-05T00:41:17.172Z,1008.76
2018-09-05T00:42:17.160Z,1008.76
2018-09-05T00:43:17.149Z,1008.78
2018-09-05T00:44:17.138Z,1008.76
2018-09-05T00:45:17.126Z,1008.76
2018-09-05T00:46:17.113Z,1008.76
2018-09-05T00:47:17.100Z,1008.77
2018-09-05T00:48:17.089Z,1008.76
2018-09-05T00:49:17.076Z,1008.73
2018-09-05T00:50:17.066Z,1008.73
2018-09-05T00:51:17.053Z,1008.75
2018-09-05T00:52:17.040Z,1008.74
2018-09-05T00:53:17.111Z,1008.76
2018-09-05T00:54:17.016Z,1008.76
2018-09-05T00:55:17.006Z,1008.76
2018-09-05T00:56:16.999Z,1008.71
2018-09-05T00:57:17.184Z,1008.78
2018-09-05T00:58:16.967Z,1008.75
2018-09-05T00:59:16.958Z,1008.74
2018-09-05T01:00:16.945Z,1008.77
2018-09-05T01:01:16.935Z,1008.79
2018-09-05T01:02:16.925Z,1008.78
2018-09-05T01:03:16.909Z,1008.81
2018-09-05T01:04:16.897Z,1008.81
2018-09-05T01:05:16.884Z,1008.8
2018-09-05T01:06:16.873Z,1008.81
2018-09-05T01:07:16.861Z,1008.81
2018-09-05T01:08:16.852Z,1008.82
2018-09-05T01:09:16.835Z,1008.8
2018-09-05T01:10:16.826Z,1008.79
2018-09-05T01:11:16.814Z,1008.81
2018-09-05T01:12:16.800Z,1008.8
2018-09-05T01:13:16.792Z,1008.78
2018-09-05T01:14:16.778Z,1008.8
2018-09-05T01:15:16.766Z,1008.82
2018-09-05T01:16:16.754Z,1008.79
2018-09-05T01:17:16.740Z,1008.81
2018-09-05T01:18:16.729Z,1008.79
2018-09-05T01:19:16.720Z,1008.79
2018-09-05T01:20:16.705Z,1008.82
2018-09-05T01:21:16.695Z,1008.84
2018-09-05T01:22:16.680Z,1008.84
2018-09-05T01:23:16.669Z,1008.82
2018-09-05T01:24:16.722Z,1008.8
2018-09-05T01:25:16.850Z,1008.76
2018-09-05T01:26:16.633Z,1008.78
2018-09-05T01:27:16.624Z,1008.74
2018-09-05T01:28:16.610Z,1008.73
2018-09-05T01:29:16.597Z,1008.74
2018-09-05T01:30:16.586Z,1008.73
2018-09-05T01:31:16.575Z,1008.78
2018-09-05T01:32:16.560Z,1008.75
2018-09-05T01:33:16.556Z,1008.75
2018-09-05T01:34:16.536Z,1008.71
2018-09-05T01:35:16.553Z,1008.7
2018-09-05T01:36:16.513Z,1008.73
2018-09-05T01:37:16.504Z,1008.7
2018-09-05T01:38:16.487Z,1008.69
2018-09-05T01:39:16.475Z,1008.69
2018-09-05T01:40:16.471Z,1008.66
2018-09-05T01:41:16.450Z,1008.67
2018-09-05T01:42:16.438Z,1008.65
2018-09-05T01:43:16.431Z,1008.63
2018-09-05T01:44:16.415Z,1008.64
2018-09-05T01:45:16.402Z,1008.6
2018-09-05T01:46:16.391Z,1008.59
2018-09-05T01:47:16.381Z,1008.61
2018-09-05T01:48:16.370Z,1008.63
2018-09-05T01:49:16.354Z,1008.62
2018-09-05T01:50:16.342Z,1008.62
2018-09-05T01:51:16.331Z,1008.64
2018-09-05T01:52:16.317Z,1008.6
2018-09-05T01:53:16.307Z,1008.63
2018-09-05T01:54:16.292Z,1008.62
2018-09-05T01:55:16.281Z,1008.65
2018-09-05T01:56:16.268Z,1008.62
2018-09-05T01:57:16.256Z,1008.61
2018-09-05T01:58:16.244Z,1008.63
2018-09-05T01:59:16.230Z,1008.6
2018-09-05T02:00:16.220Z,1008.6
2018-09-05T02:01:16.206Z,1008.6
2018-09-05T02:02:16.200Z,1008.65
2018-09-05T02:03:16.183Z,1008.61
2018-09-05T02:04:16.170Z,1008.64
2018-09-05T02:05:16.158Z,1008.63
2018-09-05T02:06:16.147Z,1008.64
2018-09-05T02:07:16.132Z,1008.67
2018-09-05T02:08:16.173Z,1008.65
2018-09-05T02:09:16.108Z,1008.63
2018-09-05T02:10:16.096Z,1008.66
2018-09-05T02:11:16.084Z,1008.68
2018-09-05T02:12:16.071Z,1008.61
2018-09-05T02:13:16.060Z,1008.63
2018-09-05T02:14:16.046Z,1008.6
2018-09-05T02:15:16.038Z,1008.64
2018-09-05T02:16:16.022Z,1008.62
2018-09-05T02:17:16.011Z,1008.69
2018-09-05T02:18:15.996Z,1008.65
2018-09-05T02:19:15.986Z,1008.65
2018-09-05T02:20:15.973Z,1008.71
2018-09-05T02:21:15.961Z,1008.64
2018-09-05T02:22:15.947Z,1008.6
2018-09-05T02:23:15.936Z,1008.65
2018-09-05T02:24:15.924Z,1008.66
2018-09-05T02:25:15.909Z,1008.63
2018-09-05T02:26:15.902Z,1008.65
2018-09-05T02:27:15.887Z,1008.63
2018-09-05T02:28:15.914Z,1008.64
2018-09-05T02:29:15.863Z,1008.62
2018-09-05T02:30:15.850Z,1008.62
2018-09-05T02:31:15.838Z,1008.63
2018-09-05T02:32:15.826Z,1008.62
2018-09-05T02:33:15.812Z,1008.63
2018-09-05T02:34:15.800Z,1008.57
2018-09-05T02:35:15.792Z,1008.61
2018-09-05T02:36:15.774Z,1008.58
2018-09-05T02:37:15.762Z,1008.59
2018-09-05T02:38:15.748Z,1008.58
2018-09-05T02:39:15.736Z,1008.61
2018-09-05T02:40:15.777Z,1008.62
2018-09-05T02:41:15.711Z,1008.62
2018-09-05T02:42:15.700Z,1008.61
2018-09-05T02:43:15.688Z,1008.64
2018-09-05T02:44:15.674Z,1008.64
2018-09-05T02:45:15.662Z,1008.61
2018-09-05T02:46:15.656Z,1008.62
2018-09-05T02:47:15.635Z,1008.62
2018-09-05T02:48:15.625Z,1008.59
2018-09-05T02:49:15.613Z,1008.58
2018-09-05T02:50:15.599Z,1008.61
2018-09-05T02:51:15.588Z,1008.6
2018-09-05T02:52:15.576Z,1008.6
2018-09-05T02:53:15.566Z,1008.6
2018-09-05T02:54:15.549Z,1008.58
2018-09-05T02:55:15.538Z,1008.6
2018-09-05T02:56:15.525Z,1008.62
2018-09-05T02:57:15.512Z,1008.63
2018-09-05T02:58:15.502Z,1008.63
2018-09-05T02:59:15.486Z,1008.62
2018-09-05T03:00:15.473Z,1008.63
2018-09-05T03:01:15.462Z,1008.6
2018-09-05T03:02:15.448Z,1008.62
2018-09-05T03:03:15.439Z,1008.6
2018-09-05T03:04:15.426Z,1008.61
2018-09-05T03:05:15.412Z,1008.59
2018-09-05T03:06:15.399Z,1008.54
2018-09-05T03:07:15.387Z,1008.52
2018-09-05T03:08:15.377Z,1008.53
2018-09-05T03:09:15.445Z,1008.56
2018-09-05T03:10:15.351Z,1008.54
2018-09-05T03:11:15.337Z,1008.52
2018-09-05T03:12:15.325Z,1008.54
2018-09-05T03:13:15.313Z,1008.53
2018-09-05T03:14:15.299Z,1008.52
2018-09-05T03:15:15.286Z,1008.54
2018-09-05T03:16:15.274Z,1008.54
2018-09-05T03:17:15.260Z,1008.52
2018-09-05T03:18:15.249Z,1008.54
2018-09-05T03:19:15.235Z,1008.49
2018-09-05T03:20:15.224Z,1008.54
2018-09-05T03:21:15.209Z,1008.5
2018-09-05T03:22:15.197Z,1008.51
2018-09-05T03:23:15.187Z,1008.49
2018-09-05T03:24:15.171Z,1008.52
2018-09-05T03:25:15.160Z,1008.54
2018-09-05T03:26:15.147Z,1008.52
2018-09-05T03:27:15.136Z,1008.52
2018-09-05T03:28:15.121Z,1008.59
2018-09-05T03:29:15.108Z,1008.59
2018-09-05T03:30:15.096Z,1008.56
2018-09-05T03:31:15.082Z,1008.61
2018-09-05T03:32:15.155Z,1008.61
2018-09-05T03:33:15.058Z,1008.64
2018-09-05T03:34:15.051Z,1008.6
2018-09-05T03:35:15.033Z,1008.65
2018-09-05T03:36:15.019Z,1008.62
2018-09-05T03:37:15.006Z,1008.63
2018-09-05T03:38:14.994Z,1008.64
2018-09-05T03:39:14.981Z,1008.65
2018-09-05T03:40:14.970Z,1008.66
2018-09-05T03:41:14.955Z,1008.66
2018-09-05T03:42:14.946Z,1008.67
2018-09-05T03:43:14.932Z,1008.66
2018-09-05T03:44:14.925Z,1008.66
2018-09-05T03:45:14.903Z,1008.69
2018-09-05T03:46:14.890Z,1008.67
2018-09-05T03:47:14.880Z,1008.71
2018-09-05T03:48:14.865Z,1008.7
2018-09-05T03:49:14.853Z,1008.7
2018-09-05T03:50:14.838Z,1008.66
2018-09-05T03:51:14.828Z,1008.66
2018-09-05T03:52:14.822Z,1008.68
2018-09-05T03:53:14.800Z,1008.66
2018-09-05T03:54:14.793Z,1008.69
2018-09-05T03:55:14.776Z,1008.69
2018-09-05T03:56:14.763Z,1008.67
2018-09-05T03:57:14.749Z,1008.68
2018-09-05T03:58:14.738Z,1008.7
2018-09-05T03:59:14.723Z,1008.72
2018-09-05T04:00:14.711Z,1008.72
2018-09-05T04:01:14.699Z,1008.74
2018-09-05T04:02:14.686Z,1008.7
2018-09-05T04:03:14.673Z,1008.73
2018-09-05T04:04:14.661Z,1008.75
2018-09-05T04:05:14.650Z,1008.78
2018-09-05T04:06:14.633Z,1008.79
2018-09-05T04:07:14.622Z,1008.79
2018-09-05T04:08:14.607Z,1008.79
2018-09-05T04:09:14.632Z,1008.76
2018-09-05T04:10:14.582Z,1008.77
2018-09-05T04:11:14.568Z,1008.76
2018-09-05T04:12:14.655Z,1008.79
2018-09-05T04:13:14.746Z,1008.73
2018-09-05T04:14:14.532Z,1008.77
2018-09-05T04:15:14.516Z,1008.73
2018-09-05T04:16:14.505Z,1008.76
2018-09-05T04:17:14.492Z,1008.78
2018-09-05T04:18:14.477Z,1008.76
2018-09-05T04:19:14.464Z,1008.77
2018-09-05T04:20:14.452Z,1008.79
2018-09-05T04:21:14.444Z,1008.76
2018-09-05T04:22:14.425Z,1008.77
2018-09-05T04:23:14.414Z,1008.75
2018-09-05T04:24:14.401Z,1008.73
2018-09-05T04:25:14.388Z,1008.75
2018-09-05T04:26:14.373Z,1008.75
2018-09-05T04:27:14.360Z,1008.71
2018-09-05T04:28:14.348Z,1008.74
2018-09-05T04:29:14.336Z,1008.75
2018-09-05T04:30:14.321Z,1008.75
2018-09-05T04:31:14.316Z,1008.77
2018-09-05T04:32:14.303Z,1008.72
2018-09-05T04:33:14.287Z,1008.71
2018-09-05T04:34:14.269Z,1008.73
2018-09-05T04:35:14.257Z,1008.7
2018-09-05T04:36:14.243Z,1008.74
2018-09-05T04:37:14.231Z,1008.72
2018-09-05T04:38:14.220Z,1008.71
2018-09-05T04:39:14.205Z,1008.72
2018-09-05T04:40:14.192Z,1008.74
2018-09-05T04:41:14.183Z,1008.73
2018-09-05T04:42:14.167Z,1008.74
2018-09-05T04:43:14.153Z,1008.74
2018-09-05T04:44:14.142Z,1008.76
2018-09-05T04:45:14.140Z,1008.78
2018-09-05T04:46:14.114Z,1008.78
2018-09-05T04:47:14.101Z,1008.77
2018-09-05T04:48:14.089Z,1008.77
2018-09-05T04:49:14.076Z,1008.78
2018-09-05T04:50:14.077Z,1008.76
2018-09-05T04:51:14.052Z,1008.8
2018-09-05T04:52:14.036Z,1008.81
2018-09-05T04:53:14.025Z,1008.77
2018-09-05T04:54:14.012Z,1008.79
2018-09-05T04:55:13.997Z,1008.75
2018-09-05T04:56:13.985Z,1008.78
2018-09-05T04:57:13.979Z,1008.76
2018-09-05T04:58:13.963Z,1008.74
2018-09-05T04:59:13.947Z,1008.76
2018-09-05T05:00:13.936Z,1008.76
2018-09-05T05:01:13.920Z,1008.8
2018-09-05T05:02:13.923Z,1008.78
2018-09-05T05:03:13.894Z,1008.77
2018-09-05T05:04:13.878Z,1008.8
2018-09-05T05:05:13.922Z,1008.78
2018-09-05T05:06:13.852Z,1008.82
2018-09-05T05:07:13.840Z,1008.78
2018-09-05T05:08:13.826Z,1008.81
2018-09-05T05:10:13.800Z,1008.8
2018-09-05T05:11:13.789Z,1008.78
2018-09-05T05:12:13.774Z,1008.8
2018-09-05T05:13:13.762Z,1008.82
2018-09-05T05:14:13.748Z,1008.8
2018-09-05T05:15:13.736Z,1008.82
2018-09-05T05:16:13.721Z,1008.84
2018-09-05T05:17:13.707Z,1008.8
2018-09-05T05:18:13.702Z,1008.81
2018-09-05T05:19:13.683Z,1008.85
2018-09-05T05:20:13.671Z,1008.83
2018-09-05T05:21:13.657Z,1008.81
2018-09-05T05:22:13.645Z,1008.84
2018-09-05T05:23:13.631Z,1008.86
2018-09-05T05:24:13.617Z,1008.87
2018-09-05T05:25:13.610Z,1008.87
2018-09-05T05:26:13.593Z,1008.86
2018-09-05T05:27:13.580Z,1008.86
2018-09-05T05:28:13.567Z,1008.88
2018-09-05T05:29:13.554Z,1008.9
2018-09-05T05:30:13.539Z,1008.9
2018-09-05T05:31:13.526Z,1008.95
2018-09-05T05:32:13.517Z,1008.86
2018-09-05T05:33:13.504Z,1008.9
2018-09-05T05:34:13.490Z,1008.93
2018-09-05T05:35:13.473Z,1008.94
2018-09-05T05:36:13.461Z,1008.94
2018-09-05T05:37:13.450Z,1008.93
2018-09-05T05:38:13.435Z,1008.94
2018-09-05T05:39:13.423Z,1008.94
2018-09-05T05:40:13.512Z,1008.96
2018-09-05T05:41:13.397Z,1008.93
2018-09-05T05:42:13.384Z,1008.97
2018-09-05T05:43:13.369Z,1008.97
2018-09-05T05:44:13.356Z,1008.95
2018-09-05T05:45:13.345Z,1008.98
2018-09-05T05:46:13.336Z,1008.97
2018-09-05T05:47:13.317Z,1009.03
2018-09-05T05:48:13.311Z,1009
2018-09-05T05:49:13.293Z,1009.02
2018-09-05T05:50:13.278Z,1008.95
2018-09-05T05:51:13.267Z,1009.02
2018-09-05T05:52:13.254Z,1009.07
2018-09-05T05:53:13.243Z,1009.07
2018-09-05T05:54:13.228Z,1009.08
2018-09-05T05:55:13.330Z,1009.1
2018-09-05T05:56:13.207Z,1009.11
2018-09-05T05:57:13.192Z,1009.16
2018-09-05T05:58:13.177Z,1009.15
2018-09-05T05:59:13.164Z,1009.14
2018-09-05T06:00:13.152Z,1009.14
2018-09-05T06:01:13.201Z,1009.17
2018-09-05T06:02:13.130Z,1009.19
2018-09-05T06:03:13.113Z,1009.16
2018-09-05T06:04:13.108Z,1009.17
2018-09-05T06:05:13.088Z,1009.18
2018-09-05T06:06:13.161Z,1009.18
2018-09-05T06:07:13.066Z,1009.17
2018-09-05T06:08:13.054Z,1009.17
2018-09-05T06:09:13.038Z,1009.19
2018-09-05T06:10:13.026Z,1009.2
2018-09-05T06:11:13.013Z,1009.19
2018-09-05T06:12:13.158Z,1009.18
2018-09-05T06:13:13.194Z,1009.23
2018-09-05T06:14:12.982Z,1009.23
2018-09-05T06:15:12.969Z,1009.23
2018-09-05T06:16:12.952Z,1009.21
2018-09-05T06:17:12.939Z,1009.23
2018-09-05T06:18:12.931Z,1009.27
2018-09-05T06:19:12.916Z,1009.27
2018-09-05T06:20:12.901Z,1009.26
2018-09-05T06:21:12.890Z,1009.27
2018-09-05T06:22:12.878Z,1009.24
2018-09-05T06:23:12.865Z,1009.27
2018-09-05T06:24:12.852Z,1009.28
2018-09-05T06:25:12.844Z,1009.24
2018-09-05T06:26:12.829Z,1009.29
2018-09-05T06:27:12.820Z,1009.29
2018-09-05T06:28:12.804Z,1009.28
2018-09-05T06:29:12.794Z,1009.29
2018-09-05T06:30:12.783Z,1009.32
2018-09-05T06:31:12.883Z,1009.28
2018-09-05T06:32:12.755Z,1009.3
2018-09-05T06:33:12.744Z,1009.31
2018-09-05T06:34:12.787Z,1009.29
2018-09-05T06:35:12.719Z,1009.28
2018-09-05T06:36:12.707Z,1009.32
2018-09-05T06:37:12.693Z,1009.29
2018-09-05T06:38:12.681Z,1009.31
2018-09-05T06:39:12.735Z,1009.32
2018-09-05T06:40:12.658Z,1009.32
2018-09-05T06:41:12.646Z,1009.32
2018-09-05T06:42:12.634Z,1009.35
2018-09-05T06:43:12.621Z,1009.34
2018-09-05T06:44:12.610Z,1009.31
2018-09-05T06:45:12.638Z,1009.37
2018-09-05T06:46:12.588Z,1009.38
2018-09-05T06:47:12.578Z,1009.38
2018-09-05T06:48:12.562Z,1009.32
2018-09-05T06:49:12.756Z,1009.36
2018-09-05T06:50:12.539Z,1009.35
2018-09-05T06:51:12.541Z,1009.32
2018-09-05T06:52:12.515Z,1009.38
2018-09-05T06:53:12.503Z,1009.35
2018-09-05T06:54:12.492Z,1009.35
2018-09-05T06:55:12.480Z,1009.38
2018-09-05T06:56:12.469Z,1009.37
2018-09-05T06:57:12.457Z,1009.37
2018-09-05T06:58:12.463Z,1009.39
2018-09-05T06:59:12.447Z,1009.39
2018-09-05T07:00:12.420Z,1009.4
2018-09-05T07:01:12.409Z,1009.36
2018-09-05T07:02:12.399Z,1009.37
2018-09-05T07:03:12.386Z,1009.39
2018-09-05T07:04:12.377Z,1009.39
2018-09-05T07:05:12.367Z,1009.41
2018-09-05T07:06:12.356Z,1009.44
2018-09-05T07:07:12.340Z,1009.39
2018-09-05T07:08:12.329Z,1009.41
2018-09-05T07:09:12.318Z,1009.43
2018-09-05T07:10:12.307Z,1009.43
2018-09-05T07:11:12.295Z,1009.37
2018-09-05T07:12:12.284Z,1009.39
2018-09-05T07:13:12.278Z,1009.34
2018-09-05T07:14:12.410Z,1009.34
2018-09-05T07:15:12.251Z,1009.36
2018-09-05T07:16:12.240Z,1009.37
2018-09-05T07:17:12.230Z,1009.4
2018-09-05T07:18:12.223Z,1009.39
2018-09-05T07:19:12.204Z,1009.41
2018-09-05T07:20:12.196Z,1009.4
2018-09-05T07:21:12.191Z,1009.42
2018-09-05T07:22:12.175Z,1009.39
2018-09-05T07:23:12.161Z,1009.41
2018-09-05T07:24:12.159Z,1009.42
2018-09-05T07:25:12.138Z,1009.44
2018-09-05T07:26:12.133Z,1009.4
2018-09-05T07:27:12.117Z,1009.41
2018-09-05T07:28:12.106Z,1009.44
2018-09-05T07:29:12.097Z,1009.42
2018-09-05T07:30:12.088Z,1009.46
2018-09-05T07:31:12.075Z,1009.44
2018-09-05T07:32:12.068Z,1009.45
2018-09-05T07:33:12.053Z,1009.43
2018-09-05T07:34:12.041Z,1009.41
2018-09-05T07:35:12.030Z,1009.43
2018-09-05T07:36:12.018Z,1009.45
2018-09-05T07:37:12.006Z,1009.45
2018-09-05T07:38:11.998Z,1009.48
2018-09-05T07:39:11.987Z,1009.48
2018-09-05T07:40:11.980Z,1009.5
2018-09-05T07:41:11.964Z,1009.5
2018-09-05T07:42:11.955Z,1009.49
2018-09-05T07:43:11.942Z,1009.53
2018-09-05T07:44:11.933Z,1009.51
2018-09-05T07:45:11.925Z,1009.52
2018-09-05T07:46:11.916Z,1009.52
2018-09-05T07:47:11.905Z,1009.5
2018-09-05T07:48:11.890Z,1009.5
2018-09-05T07:49:11.882Z,1009.54
2018-09-05T07:50:11.870Z,1009.49
2018-09-05T07:51:11.861Z,1009.46
2018-09-05T07:52:11.849Z,1009.49
2018-09-05T07:53:11.889Z,1009.44
2018-09-05T07:54:11.833Z,1009.48
2018-09-05T07:55:11.819Z,1009.46
2018-09-05T07:56:11.809Z,1009.44
2018-09-05T07:57:11.814Z,1009.49
2018-09-05T07:58:11.789Z,1009.49
2018-09-05T07:59:11.782Z,1009.49
2018-09-05T08:00:11.768Z,1009.45
2018-09-05T08:01:11.756Z,1009.48
2018-09-05T08:02:11.746Z,1009.46
2018-09-05T08:03:11.736Z,1009.44
2018-09-05T08:04:11.729Z,1009.46
2018-09-05T08:05:11.718Z,1009.46
2018-09-05T08:06:11.706Z,1009.48
2018-09-05T08:07:11.698Z,1009.46
2018-09-05T08:08:11.686Z,1009.46
2018-09-05T08:09:11.674Z,1009.45
2018-09-05T08:10:11.665Z,1009.47
2018-09-05T08:11:11.659Z,1009.44
2018-09-05T08:12:11.645Z,1009.45
2018-09-05T08:13:11.837Z,1009.46
2018-09-05T08:14:11.827Z,1009.46
2018-09-05T08:15:11.618Z,1009.45
2018-09-05T08:16:11.604Z,1009.42
2018-09-05T08:17:11.597Z,1009.41
2018-09-05T08:18:11.647Z,1009.42
2018-09-05T08:19:11.576Z,1009.43
2018-09-05T08:20:11.568Z,1009.41
2018-09-05T08:21:11.555Z,1009.44
2018-09-05T08:22:11.546Z,1009.43
2018-09-05T08:23:11.544Z,1009.43
2018-09-05T08:24:11.589Z,1009.42
2018-09-05T08:25:11.516Z,1009.41
2018-09-05T08:26:11.507Z,1009.4
2018-09-05T08:27:11.499Z,1009.44
2018-09-05T08:28:11.490Z,1009.43
2018-09-05T08:29:11.500Z,1009.39
2018-09-05T08:30:11.542Z,1009.38
2018-09-05T08:31:11.460Z,1009.36
2018-09-05T08:32:11.456Z,1009.35
2018-09-05T08:33:11.446Z,1009.38
2018-09-05T08:34:11.432Z,1009.39
2018-09-05T08:35:11.502Z,1009.39
2018-09-05T08:36:11.897Z,1009.35
2018-09-05T08:37:11.671Z,1009.38
2018-09-05T08:38:11.423Z,1009.35
2018-09-05T08:39:11.391Z,1009.37
2018-09-05T08:40:11.377Z,1009.36
2018-09-05T08:41:11.469Z,1009.37
2018-09-05T08:42:11.461Z,1009.38
2018-09-05T08:43:11.351Z,1009.38
2018-09-05T08:44:11.556Z,1009.35
2018-09-05T08:45:11.406Z,1009.34
2018-09-05T08:46:11.493Z,1009.4
2018-09-05T08:47:11.349Z,1009.35
2018-09-05T08:48:11.427Z,1009.39
2018-09-05T08:49:11.302Z,1009.38
2018-09-05T08:50:11.286Z,1009.37
2018-09-05T08:51:11.278Z,1009.38
2018-09-05T08:52:11.270Z,1009.36
2018-09-05T08:53:11.267Z,1009.4
2018-09-05T08:54:11.251Z,1009.37
2018-09-05T08:55:11.326Z,1009.36
2018-09-05T08:56:11.365Z,1009.4
2018-09-05T08:57:11.229Z,1009.37
2018-09-05T08:58:11.418Z,1009.35
2018-09-05T08:59:11.209Z,1009.33
2018-09-05T09:00:11.201Z,1009.35
2018-09-05T09:01:11.190Z,1009.35
2018-09-05T09:02:11.182Z,1009.36
2018-09-05T09:03:11.174Z,1009.3
2018-09-05T09:04:11.174Z,1009.3
2018-09-05T09:05:11.159Z,1009.29
2018-09-05T09:06:11.155Z,1009.28
2018-09-05T09:07:11.138Z,1009.29
2018-09-05T09:08:11.129Z,1009.34
2018-09-05T09:09:11.123Z,1009.32
2018-09-05T09:10:11.115Z,1009.28
2018-09-05T09:11:11.105Z,1009.29
2018-09-05T09:12:11.099Z,1009.31
2018-09-05T09:13:11.091Z,1009.31
2018-09-05T09:14:11.081Z,1009.3
2018-09-05T09:15:11.073Z,1009.31
2018-09-05T09:16:11.068Z,1009.31
2018-09-05T09:17:11.054Z,1009.29
2018-09-05T09:18:11.048Z,1009.26
2018-09-05T09:19:11.038Z,1009.23
2018-09-05T09:20:11.033Z,1009.26
2018-09-05T09:21:11.022Z,1009.25
2018-09-05T09:22:11.016Z,1009.26
2018-09-05T09:23:11.007Z,1009.25
2018-09-05T09:24:11.000Z,1009.23
2018-09-05T09:25:10.991Z,1009.22
2018-09-05T09:26:10.987Z,1009.22
2018-09-05T09:27:10.976Z,1009.2
2018-09-05T09:28:11.026Z,1009.22
2018-09-05T09:29:10.959Z,1009.19
2018-09-05T09:30:10.952Z,1009.18
2018-09-05T09:31:10.953Z,1009.19
2018-09-05T09:32:10.938Z,1009.17
2018-09-05T09:33:10.929Z,1009.14
2018-09-05T09:34:10.920Z,1009.16
2018-09-05T09:35:10.912Z,1009.13
2018-09-05T09:36:10.904Z,1009.15
2018-09-05T09:37:10.898Z,1009.15
2018-09-05T09:38:10.891Z,1009.12
2018-09-05T09:39:10.880Z,1009.13
2018-09-05T09:40:10.886Z,1009.12
2018-09-05T09:41:10.873Z,1009.08
2018-09-05T09:42:10.859Z,1009.07
2018-09-05T09:43:10.851Z,1009.09
2018-09-05T09:44:10.845Z,1009.04
2018-09-05T09:45:10.834Z,1009.09
2018-09-05T09:46:10.839Z,1009.07
2018-09-05T09:47:10.819Z,1009.05
2018-09-05T09:48:10.811Z,1009.03
2018-09-05T09:49:10.804Z,1009.04
2018-09-05T09:50:10.797Z,1009.06
2018-09-05T09:51:10.789Z,1009.06
2018-09-05T09:52:10.781Z,1009.05
2018-09-05T09:53:10.774Z,1009.04
2018-09-05T09:54:10.766Z,1009.07
2018-09-05T09:55:10.810Z,1009.02
2018-09-05T09:56:10.753Z,1009.06
2018-09-05T09:57:10.748Z,1009.03
2018-09-05T09:58:10.736Z,1009.03
2018-09-05T09:59:10.734Z,1009.01
2018-09-05T10:00:10.722Z,1008.99
2018-09-05T10:01:10.715Z,1008.98
2018-09-05T10:02:10.710Z,1008.99
2018-09-05T10:03:10.734Z,1009.03
2018-09-05T10:04:10.783Z,1009
2018-09-05T10:05:10.686Z,1008.99
2018-09-05T10:06:10.679Z,1009
2018-09-05T10:07:10.733Z,1009
2018-09-05T10:08:10.665Z,1008.98
2018-09-05T10:09:10.656Z,1008.99
2018-09-05T10:10:10.811Z,1008.97
2018-09-05T10:11:10.648Z,1008.97
2018-09-05T10:12:10.636Z,1008.99
2018-09-05T10:13:10.633Z,1008.99
2018-09-05T10:14:10.621Z,1008.98
2018-09-05T10:15:10.620Z,1008.97
2018-09-05T10:16:10.610Z,1008.98
2018-09-05T10:17:10.732Z,1008.98
2018-09-05T10:18:10.596Z,1008.94
2018-09-05T10:19:10.590Z,1008.95
2018-09-05T10:20:10.581Z,1008.94
2018-09-05T10:21:10.573Z,1008.92
2018-09-05T10:22:10.569Z,1008.9
2018-09-05T10:23:10.564Z,1008.89
2018-09-05T10:24:10.554Z,1008.86
2018-09-05T10:26:10.548Z,1008.84
2018-09-05T10:27:10.536Z,1008.84
2018-09-05T10:28:10.528Z,1008.82
2018-09-05T10:29:10.521Z,1008.83
2018-09-05T10:30:10.515Z,1008.79
2018-09-05T10:31:10.508Z,1008.78
2018-09-05T10:32:10.506Z,1008.82
2018-09-05T10:33:10.496Z,1008.78
2018-09-05T10:34:10.489Z,1008.8
2018-09-05T10:35:10.481Z,1008.78
2018-09-05T10:36:10.476Z,1008.74
2018-09-05T10:37:10.470Z,1008.78
2018-09-05T10:38:10.462Z,1008.77
2018-09-05T10:39:10.457Z,1008.77
2018-09-05T10:40:10.451Z,1008.73
2018-09-05T10:41:10.448Z,1008.75
2018-09-05T10:42:10.436Z,1008.73
2018-09-05T10:43:10.430Z,1008.71
2018-09-05T10:44:10.430Z,1008.72
2018-09-05T10:45:10.423Z,1008.68
2018-09-05T10:46:10.412Z,1008.69
2018-09-05T10:47:10.407Z,1008.7
2018-09-05T10:48:10.405Z,1008.69
2018-09-05T10:49:10.398Z,1008.68
2018-09-05T10:50:10.387Z,1008.65
2018-09-05T10:51:10.381Z,1008.66
2018-09-05T10:52:10.378Z,1008.64
2018-09-05T10:53:10.374Z,1008.58
2018-09-05T10:54:10.365Z,1008.58
2018-09-05T10:55:10.358Z,1008.62
2018-09-05T10:56:10.355Z,1008.63
2018-09-05T10:57:10.350Z,1008.64
2018-09-05T10:58:10.420Z,1008.54
2018-09-05T10:59:10.335Z,1008.6
2018-09-05T11:00:10.333Z,1008.69
2018-09-05T11:01:10.324Z,1008.74
2018-09-05T11:02:10.321Z,1008.73
2018-09-05T11:03:10.313Z,1008.8
2018-09-05T11:04:10.321Z,1008.69
2018-09-05T11:05:10.306Z,1008.68
2018-09-05T11:06:10.301Z,1008.69
2018-09-05T11:07:10.294Z,1008.72
2018-09-05T11:08:10.291Z,1008.72
2018-09-05T11:09:10.288Z,1008.76
2018-09-05T11:10:10.280Z,1008.71
2018-09-05T11:11:10.275Z,1008.71
2018-09-05T11:12:10.267Z,1008.67
2018-09-05T11:13:10.314Z,1008.69
2018-09-05T11:14:10.258Z,1008.66
2018-09-05T11:15:10.252Z,1008.74
2018-09-05T11:16:10.250Z,1008.79
2018-09-05T11:17:10.244Z,1008.75
2018-09-05T11:18:10.240Z,1008.75
2018-09-05T11:19:10.237Z,1008.75
2018-09-05T11:20:10.235Z,1008.74
2018-09-05T11:21:10.307Z,1008.72
2018-09-05T11:22:10.228Z,1008.81
2018-09-05T11:23:10.224Z,1008.84
2018-09-05T11:24:10.223Z,1008.81
2018-09-05T11:25:10.226Z,1008.79
2018-09-05T11:26:10.226Z,1008.77
2018-09-05T11:27:10.221Z,1008.74
2018-09-05T11:28:10.222Z,1008.73
2018-09-05T11:29:10.352Z,1008.75
2018-09-05T11:30:10.225Z,1008.75
2018-09-05T11:31:10.231Z,1008.74
2018-09-05T11:32:10.230Z,1008.76
2018-09-05T11:33:10.230Z,1008.76
2018-09-05T11:34:10.231Z,1008.76
2018-09-05T11:35:10.242Z,1008.76
2018-09-05T11:36:10.236Z,1008.72
2018-09-05T11:37:10.247Z,1008.68
2018-09-05T11:38:10.245Z,1008.7
2018-09-05T11:39:10.247Z,1008.7
2018-09-05T11:40:10.257Z,1008.76
2018-09-05T11:41:10.259Z,1008.67
2018-09-05T11:42:10.261Z,1008.69
2018-09-05T11:43:10.266Z,1008.74
2018-09-05T11:44:10.270Z,1008.73
2018-09-05T11:45:10.276Z,1008.69
2018-09-05T11:46:10.280Z,1008.7
2018-09-05T11:47:10.286Z,1008.68
2018-09-05T11:48:10.292Z,1008.66
2018-09-05T11:49:10.298Z,1008.63
2018-09-05T11:50:10.303Z,1008.67
2018-09-05T11:51:10.311Z,1008.65
2018-09-05T11:52:10.318Z,1008.66
2018-09-05T11:53:10.320Z,1008.64
2018-09-05T11:54:10.326Z,1008.67
2018-09-05T11:55:10.332Z,1008.64
2018-09-05T11:56:10.339Z,1008.6
2018-09-05T11:57:10.363Z,1008.59
2018-09-05T11:58:10.354Z,1008.61
2018-09-05T11:59:10.365Z,1008.58
2018-09-05T12:00:10.376Z,1008.56
2018-09-05T12:01:10.374Z,1008.61
2018-09-05T12:02:10.388Z,1008.65
2018-09-05T12:03:10.389Z,1008.56
2018-09-05T12:04:10.394Z,1008.53
2018-09-05T12:05:10.403Z,1008.5
2018-09-05T12:06:10.408Z,1008.51
2018-09-05T12:07:10.418Z,1008.48
2018-09-05T12:08:10.425Z,1008.47
2018-09-05T12:09:10.436Z,1008.46
2018-09-05T12:10:10.439Z,1008.51